• Join FlightAware (Why Join?)
  • Login
  • US Flag 
12:06PM EDT


 

Airport Tracker/Info


-or-


 

Live Flight TrackerFlight Track Log ✈ SWA407 ✈ 08-Apr-2013 ✈ KBUF - KBWI

Flight Track Log - Related Links

Times and Time Zones

All times are in EDT time to prevent confusion due to time zone crossing. See the SWA407 flight status page for this flight to view local times or setup timezone preferences in your user account.

Time Position Orientation Groundspeed Altitude Reporting Facility
EDT Latitude Longitude Course Direction KTS MPH feet Rate Location/Type
07:17PM 42.9500 -78.7167 360° North 156 180 1,700  Level Buffalo TRACON
07:17PM 42.9500 -78.7167 56° Northeast 157 181 1,900 2,400 Climbing Buffalo TRACON
07:18PM 42.9833 -78.6500 56° Northeast 229 264 4,400 3,240 Climbing Buffalo TRACON
07:20PM 42.9167 -78.6333 170° South 241 277 8,800 3,060 Climbing Buffalo TRACON
07:20PM 42.8731 -78.6342 181° South 275 316 10,000 2,580 Climbing Cleveland Center
07:21PM 42.7897 -78.6339 180° South 280 322 13,200 3,480 Climbing Cleveland Center
07:22PM 42.7003 -78.6394 183° South 304 350 17,000 3,600 Climbing Cleveland Center
07:23PM 42.6003 -78.6453 182° South 340 391 20,400 3,720 Climbing Cleveland Center
07:24PM 42.5003 -78.6542 184° South 357 411 24,500 2,280 Climbing Cleveland Center
07:25PM 42.4019 -78.6206 166° South 362 417 25,000 240 Climbing Cleveland Center
07:26PM 42.3208 -78.5247 139° Southeast 362 417 25,000  Level Cleveland Center
07:27PM 42.2358 -78.4322 141° Southeast 378 435 25,000  Level Cleveland Center
07:28PM 42.1528 -78.3397 140° Southeast 383 441 25,000  Level Cleveland Center
07:29PM 42.0697 -78.2475 140° Southeast 388 447 25,000  Level Cleveland Center
07:30PM 41.9886 -78.1583 141° Southeast 394 453 25,000  Level Cleveland Center
07:32PM 41.8253 -77.9831 141° Southeast 397 457 25,000  Level New York Center
07:33PM 41.7411 -77.8933 141° Southeast 397 457 25,000  Level New York Center
07:34PM 41.6569 -77.8011 141° Southeast 392 451 25,000  Level New York Center
07:35PM 41.5747 -77.7119 141° Southeast 392 451 25,000  Level New York Center
07:36PM 41.4903 -77.6228 142° Southeast 392 451 25,000 -300 Level New York Center
07:37PM 41.3961 -77.5219 141° Southeast 392 451 24,500 -780 Descending New York Center
07:38PM 41.3097 -77.4306 142° Southeast 392 451 23,500 -1,020 Descending New York Center
07:39PM 41.2231 -77.3392 142° Southeast 392 451 22,500 -1,020 Descending New York Center
07:40PM 41.1383 -77.2508 142° Southeast 392 451 21,500 -1,020 Descending New York Center
07:41PM 41.0533 -77.1631 142° Southeast 398 458 20,500 -1,020 Descending New York Center
07:42PM 40.9728 -77.0758 141° Southeast 392 451 19,500 -780 Descending New York Center
07:43PM 40.9056 -77.0064 142° Southeast 392 451 19,000 -600 Descending New York Center
07:44PM 40.8086 -76.9069 142° Southeast 382 440 18,400 -1,320 Descending New York Center
07:45PM 40.7419 -76.8269 138° Southeast 369 425 16,500 -1,740 Descending New York Center
07:46PM 40.6672 -76.7383 138° Southeast 361 415 15,000 -780 Descending New York Center
07:47PM 40.5844 -76.6411 138° Southeast 361 415 15,000  Level New York Center
07:48PM 40.5206 -76.5400 130° Southeast 366 421 15,000  Level New York Center
07:49PM 40.4672 -76.4400 125° Southeast 371 427 15,000  Level New York Center
07:50PM 40.4078 -76.3289 125° Southeast 371 427 15,000  Level New York Center
07:51PM 40.3186 -76.2753 155° Southeast 340 391 15,000  Level New York Center
07:52PM 40.2286 -76.2817 183° South 312 359 15,000  Level New York Center
07:53PM 40.1492 -76.2892 184° South 323 372 15,000 -240 Level New York Center
07:54PM 40.0594 -76.2900 180° South 323 372 14,600 -900 Descending New York Center
07:56PM 39.9000 -76.2667 174° South 331 381 12,800 -1,020 Descending Potomac TRACON
07:57PM 39.8167 -76.2333 163° South 333 383 12,000 -420 Descending Potomac TRACON
07:58PM 39.7333 -76.2000 163° South 323 372 12,000 -480 Level Potomac TRACON
07:59PM 39.6667 -76.2500 210° Southwest 281 323 11,100 -1,200 Descending Potomac TRACON
08:00PM 39.5833 -76.2500 180° South 299 344 9,600 -1,440 Descending Potomac TRACON
08:01PM 39.5167 -76.2500 180° South 278 320 8,200 -1,500 Descending Potomac TRACON
08:02PM 39.4667 -76.3167 226° Southwest 250 288 6,600 -1,620 Descending Potomac TRACON
08:03PM 39.4500 -76.4000 256° West 252 290 5,100 -840 Descending Potomac TRACON
08:04PM 39.4333 -76.4833 256° West 249 287 5,000 -540 Descending Potomac TRACON
08:05PM 39.4000 -76.5833 247° West 248 285 4,000 -480 Descending Potomac TRACON
08:06PM 39.3833 -76.6667 256° West 249 287 4,000  Level Potomac TRACON
08:07PM 39.3500 -76.7500 243° Southwest 248 285 4,000 -180 Level Potomac TRACON
08:08PM 39.3333 -76.8167 252° West 210 242 3,700 -540 Descending Potomac TRACON
08:09PM 39.3167 -76.8833 252° West 208 239 3,000 -300 Descending Potomac TRACON
08:10PM 39.2667 -76.9167 207° Southwest 196 226 3,100 -180 Climbing Potomac TRACON
08:11PM 39.2167 -76.9167 180° South 205 236 2,700 -300 Descending Potomac TRACON
08:12PM 39.1833 -76.8667 131° Southeast 183 211 2,600 -480 Descending Potomac TRACON
08:13PM 39.1833 -76.8000 90° East 169 194 1,800 -780 Descending Potomac TRACON
08:14PM 39.1833 -76.7500 90° East 140 161 1,100 -780 Descending Potomac TRACON
08:15PM 39.1833 -76.7000 90° East 130 150 300 -840 Descending Potomac TRACON